Porto Rico, Brazil
Current Conditions -  °F | °C
As of 6:00 AM on Wednesday 22 Oct 2014 (Local Time) from SBMG Reporting Station
Clear Clear  
Wind Chill: 61°   Ceiling: Unl
Heat Index: 61°   Visibility: 6mi
Dew Point: 54°   Wind: 9mph
Humidity: 77%   Direction: 100°E
Pressure: 30.06"   Gusts: NA
Location:  22.77°S, 53.25°W
Report Text: SBMG 220800Z 10008KT CAVOK 16/12 Q1018
Loading
Personal Weather Stations






























Interactive Weather Map
Tropical Storm Tracking
New forecast layout! Learn more

10-Day Weather Forecast

Advertisements
Track Severe Weather on mobile